Gararu, Brazil
Current Conditions -  °F | °C
As of 1:00 AM on Saturday 01 Nov 2014 (Local Time) from SBAR Reporting Station
Few Clouds Few Clouds  
Wind Chill: 77°   Ceiling: Unl
Heat Index: 79°   Visibility: 6mi
Dew Point: 66°   Wind: 12mph
Humidity: 69%   Direction: 110°ESE
Pressure: 29.97"   Gusts: NA
Location:  9.98°S, 37.07°W
Report Text: SBAR 010400Z 11010KT 9999 FEW017 25/19 Q1015
Loading
Personal Weather Stations






























Interactive Weather Map
Tropical Storm Tracking
New forecast layout! Learn more

10-Day Weather Forecast

Advertisements
Track Severe Weather on mobile